Time;durP1;ratioP1;P1;durP2;ratioP2;P2;SDS_P1;SDS_P2;PMS_P1;PMS_P2;Temp;Humidity;BMP_temperature;BMP_pressure;BME280_temperature;BME280_humidity;BME280_pressure;Samples;Min_cycle;Max_cycle;Signal;HPM_P1;HPM_P2
2021/04/02 00:01:41;;;;;;;1.90;1.77;;;5.90;99.90;;;;;;5043594;28;20826;-79
2021/04/02 00:04:06;;;;;;;3.03;2.13;;;5.90;99.90;;;;;;5043445;28;20296;-80
2021/04/02 00:06:32;;;;;;;2.50;2.20;;;5.90;99.90;;;;;;5043412;28;20280;-79
2021/04/02 00:08:57;;;;;;;2.00;1.80;;;5.80;99.90;;;;;;5045261;28;20244;-79
2021/04/02 00:11:23;;;;;;;2.70;1.97;;;5.80;99.90;;;;;;5046223;28;20738;-79
2021/04/02 00:13:49;;;;;;;2.07;1.67;;;5.60;99.90;;;;;;5043402;28;20376;-79
2021/04/02 00:16:17;;;;;;;1.70;1.50;;;5.60;99.90;;;;;;5043404;28;20381;-79
2021/04/02 00:18:43;;;;;;;1.90;1.70;;;5.60;99.90;;;;;;5045002;28;20221;-79
2021/04/02 00:21:11;;;;;;;2.63;2.27;;;5.60;99.90;;;;;;5043979;28;20222;-79
2021/04/02 00:23:38;;;;;;;2.30;1.80;;;5.60;99.90;;;;;;5043313;28;20208;-79
2021/04/02 00:26:13;;;;;;;1.90;1.70;;;5.70;99.90;;;;;;5042835;28;20235;-79
2021/04/02 00:28:39;;;;;;;2.23;2.03;;;5.60;99.90;;;;;;5043097;28;20705;-79
2021/04/02 00:31:05;;;;;;;2.37;2.00;;;5.50;99.90;;;;;;5044786;28;20187;-79
2021/04/02 00:33:32;;;;;;;2.20;1.77;;;5.60;99.90;;;;;;5044854;28;20239;-79
2021/04/02 00:35:59;;;;;;;1.80;1.70;;;5.60;99.90;;;;;;5043234;28;20196;-79
2021/04/02 00:38:24;;;;;;;1.60;1.50;;;5.50;99.90;;;;;;5043518;28;20807;-80
2021/04/02 00:41:06;;;;;;;1.70;1.57;;;5.50;99.90;;;;;;5043421;28;20194;-79
2021/04/02 00:43:41;;;;;;;2.90;1.77;;;5.50;99.90;;;;;;5044425;28;20229;-79
2021/04/02 00:46:08;;;;;;;2.70;2.00;;;5.40;99.90;;;;;;5044484;28;20208;-79
2021/04/02 00:48:34;;;;;;;1.50;1.33;;;5.40;99.90;;;;;;5043970;28;20302;-80
2021/04/02 00:51:10;;;;;;;2.30;1.80;;;5.30;99.90;;;;;;5043217;28;20192;-80
2021/04/02 00:53:40;;;;;;;1.73;1.63;;;5.30;99.90;;;;;;5034844;28;20188;-78
2021/04/02 00:56:07;;;;;;;1.50;1.33;;;5.30;99.90;;;;;;5051926;28;20186;-79
2021/04/02 00:58:35;;;;;;;1.17;1.07;;;5.30;99.90;;;;;;5044917;28;20205;-79
2021/04/02 01:01:05;;;;;;;1.50;1.40;;;5.20;99.90;;;;;;5048153;28;20189;-80
2021/04/02 01:03:31;;;;;;;1.40;1.30;;;5.10;99.90;;;;;;5047524;28;20198;-79
2021/04/02 01:06:00;;;;;;;1.40;1.30;;;5.10;99.90;;;;;;5046572;28;20275;-79
2021/04/02 01:08:29;;;;;;;1.43;1.33;;;5.20;99.90;;;;;;5046833;28;20198;-79
2021/04/02 01:10:57;;;;;;;1.60;1.40;;;5.20;99.90;;;;;;5046857;28;20273;-79
2021/04/02 01:13:39;;;;;;;1.93;1.30;;;5.20;99.90;;;;;;5046730;28;20288;-79
2021/04/02 01:16:18;;;;;;;2.33;1.57;;;5.20;99.90;;;;;;5038121;28;20639;-79
2021/04/02 01:18:49;;;;;;;1.50;1.23;;;5.10;99.90;;;;;;5046190;28;20182;-80
2021/04/02 01:21:29;;;;;;;1.03;0.93;;;5.10;99.90;;;;;;5046699;28;20182;-79
2021/04/02 01:24:06;;;;;;;1.40;1.30;;;5.20;99.90;;;;;;5038702;28;20248;-79
2021/04/02 01:26:39;;;;;;;1.83;1.23;;;5.20;99.90;;;;;;5046322;28;20202;-78
2021/04/02 01:29:45;;;;;;;1.63;1.53;;;5.10;99.90;;;;;;5048042;28;20174;-79
2021/04/02 01:32:17;;;;;;;1.07;0.97;;;5.00;99.90;;;;;;5043231;28;20190;-79
2021/04/02 01:34:47;;;;;;;1.30;1.20;;;5.00;99.90;;;;;;5045720;28;20175;-79
2021/04/02 01:37:41;;;;;;;1.73;1.40;;;5.00;99.90;;;;;;5046955;28;20204;-79
2021/04/02 01:40:09;;;;;;;1.20;1.10;;;5.10;99.90;;;;;;5046656;28;20197;-79
2021/04/02 01:42:37;;;;;;;2.73;1.73;;;5.00;99.90;;;;;;5046215;28;20190;-79
2021/04/02 01:45:04;;;;;;;1.80;1.47;;;5.00;99.90;;;;;;5046947;28;20237;-79
2021/04/02 01:47:31;;;;;;;2.87;2.27;;;4.90;99.90;;;;;;5045711;28;20715;-79
2021/04/02 01:49:59;;;;;;;2.57;1.60;;;5.00;99.90;;;;;;5045689;28;20189;-79
2021/04/02 01:52:26;;;;;;;1.93;1.17;;;5.00;99.90;;;;;;5047633;28;20283;-79
2021/04/02 01:54:53;;;;;;;1.53;1.33;;;5.10;99.90;;;;;;5046750;28;20182;-80
2021/04/02 01:57:18;;;;;;;1.73;1.63;;;5.10;99.90;;;;;;5045944;28;20202;-79
2021/04/02 01:59:46;;;;;;;1.80;1.67;;;5.20;99.90;;;;;;5045658;28;20201;-81
2021/04/02 02:02:14;;;;;;;1.37;1.10;;;5.30;99.90;;;;;;5045787;28;20189;-79
2021/04/02 02:04:41;;;;;;;1.10;1.00;;;5.40;99.90;;;;;;5036473;28;20312;-79
2021/04/02 02:07:08;;;;;;;1.50;1.13;;;5.30;99.90;;;;;;5046103;28;20224;-79
2021/04/02 02:09:38;;;;;;;1.40;1.00;;;5.20;99.90;;;;;;5045085;28;20174;-79
2021/04/02 02:12:10;;;;;;;1.53;1.03;;;5.20;99.90;;;;;;5046307;28;20197;-79
2021/04/02 02:14:39;;;;;;;0.90;0.77;;;5.20;99.90;;;;;;5045301;28;20183;-79
2021/04/02 02:17:08;;;;;;;1.10;1.00;;;5.30;99.90;;;;;;5047298;28;20202;-79
2021/04/02 02:19:37;;;;;;;1.40;1.20;;;5.40;99.90;;;;;;5043202;28;20254;-79
2021/04/02 02:22:08;;;;;;;1.33;1.23;;;5.30;99.90;;;;;;5045014;28;20568;-79
2021/04/02 02:24:35;;;;;;;1.10;1.00;;;5.30;99.90;;;;;;5044913;28;20201;-80
2021/04/02 02:27:03;;;;;;;0.70;0.70;;;5.40;99.90;;;;;;5045230;28;20202;-79
2021/04/02 02:29:29;;;;;;;0.90;0.90;;;5.50;99.90;;;;;;5044759;28;20559;-79
2021/04/02 02:31:55;;;;;;;1.00;0.97;;;5.50;99.90;;;;;;5045539;28;20174;-79
2021/04/02 02:34:21;;;;;;;1.30;0.93;;;5.50;99.90;;;;;;5045266;28;20190;-80
2021/04/02 02:36:47;;;;;;;1.23;1.03;;;5.50;99.90;;;;;;5045092;28;20200;-80
2021/04/02 02:39:14;;;;;;;1.00;0.90;;;5.50;99.90;;;;;;5046239;28;20192;-79
2021/04/02 02:41:41;;;;;;;1.00;1.00;;;5.50;99.90;;;;;;5045425;28;20206;-79
2021/04/02 02:44:07;;;;;;;1.10;0.90;;;5.50;99.90;;;;;;5045863;28;20206;-79
2021/04/02 02:46:33;;;;;;;1.30;1.10;;;5.50;99.90;;;;;;5043408;28;20193;-78
2021/04/02 02:49:16;;;;;;;1.30;0.90;;;5.50;99.90;;;;;;5043851;28;20212;-79
2021/04/02 02:51:43;;;;;;;1.20;0.93;;;5.60;99.90;;;;;;5043191;28;20174;-80
2021/04/02 02:54:17;;;;;;;1.10;1.00;;;5.50;99.90;;;;;;5043147;28;20853;-81
2021/04/02 02:56:45;;;;;;;0.97;0.90;;;5.50;99.90;;;;;;5043203;28;20682;-79
2021/04/02 02:59:15;;;;;;;1.20;0.80;;;5.50;99.90;;;;;;5043204;28;20660;-80
2021/04/02 03:01:42;;;;;;;0.83;0.83;;;5.50;99.90;;;;;;5042983;28;20186;-81
2021/04/02 03:04:10;;;;;;;1.00;0.90;;;5.50;99.90;;;;;;5045599;28;20259;-80
2021/04/02 03:06:38;;;;;;;1.43;1.07;;;5.40;99.90;;;;;;5043297;28;20201;-80
2021/04/02 03:09:06;;;;;;;1.10;1.00;;;5.40;99.90;;;;;;5045358;28;20187;-79
2021/04/02 03:11:33;;;;;;;1.13;0.90;;;5.50;99.90;;;;;;5044517;28;20174;-79
2021/04/02 03:14:00;;;;;;;0.93;0.83;;;5.60;99.90;;;;;;5045899;28;20223;-79
2021/04/02 03:16:26;;;;;;;1.40;1.10;;;5.60;99.90;;;;;;5044457;28;20185;-80
2021/04/02 03:18:55;;;;;;;0.77;0.73;;;5.70;99.90;;;;;;5044281;28;20259;-80
2021/04/02 03:21:20;;;;;;;1.53;1.13;;;5.70;99.90;;;;;;5043559;28;20204;-80
2021/04/02 03:23:47;;;;;;;1.20;0.80;;;5.60;99.90;;;;;;5044229;28;20213;-79
2021/04/02 03:26:14;;;;;;;1.63;1.20;;;5.60;99.90;;;;;;5045200;28;20949;-79
2021/04/02 03:28:43;;;;;;;0.83;0.80;;;5.70;99.90;;;;;;5044618;28;20346;-79
2021/04/02 03:31:10;;;;;;;1.70;1.03;;;5.70;99.90;;;;;;5043978;28;20328;-80
2021/04/02 03:33:44;;;;;;;2.27;1.40;;;5.70;99.90;;;;;;5041597;28;20197;-79
2021/04/02 03:36:13;;;;;;;1.30;1.17;;;5.70;99.90;;;;;;5044004;28;20182;-79
2021/04/02 03:38:43;;;;;;;1.60;1.30;;;5.60;99.90;;;;;;5046299;28;20178;-80
2021/04/02 03:41:15;;;;;;;2.20;1.10;;;5.70;99.90;;;;;;5043067;28;20309;-79
2021/04/02 03:43:43;;;;;;;1.43;1.33;;;5.80;99.90;;;;;;5043635;28;20209;-79
2021/04/02 03:46:10;;;;;;;1.23;1.10;;;5.70;99.90;;;;;;5043362;28;20185;-79
2021/04/02 03:48:39;;;;;;;1.77;1.63;;;5.60;99.90;;;;;;5044281;28;20287;-79
2021/04/02 03:51:08;;;;;;;1.50;1.40;;;5.60;99.90;;;;;;5043739;28;20269;-79
2021/04/02 03:53:39;;;;;;;2.53;1.47;;;5.60;99.90;;;;;;5044335;28;20805;-79
2021/04/02 03:56:09;;;;;;;2.30;1.80;;;5.50;99.90;;;;;;5043671;28;20197;-79
2021/04/02 03:58:37;;;;;;;2.10;1.80;;;5.60;99.90;;;;;;5044042;28;20562;-80
2021/04/02 04:01:30;;;;;;;1.60;1.50;;;5.60;99.90;;;;;;5044872;28;20217;-79
2021/04/02 04:03:57;;;;;;;1.53;1.43;;;5.80;99.90;;;;;;5044794;28;20221;-79
2021/04/02 04:06:24;;;;;;;1.73;1.50;;;5.80;99.90;;;;;;5043572;28;20177;-80
2021/04/02 04:09:05;;;;;;;1.40;1.30;;;5.80;99.90;;;;;;5043729;28;20178;-79
2021/04/02 04:11:31;;;;;;;1.73;1.20;;;5.70;99.90;;;;;;5043438;28;20181;-79
2021/04/02 04:14:00;;;;;;;1.40;1.23;;;5.70;99.90;;;;;;5043914;28;20295;-80
2021/04/02 04:16:27;;;;;;;1.37;1.03;;;5.60;99.90;;;;;;5043636;28;20623;-79
2021/04/02 04:18:57;;;;;;;1.67;1.50;;;5.60;99.90;;;;;;5043953;28;20225;-80
2021/04/02 04:21:25;;;;;;;1.60;1.30;;;5.70;99.90;;;;;;5044926;28;20606;-79
2021/04/02 04:23:51;;;;;;;1.20;1.07;;;5.80;99.90;;;;;;5043518;28;20206;-79
2021/04/02 04:26:18;;;;;;;1.50;1.30;;;5.70;99.90;;;;;;5043339;28;20270;-80
2021/04/02 04:28:48;;;;;;;1.40;1.17;;;5.70;99.90;;;;;;5043507;28;20182;-79
2021/04/02 04:31:16;;;;;;;1.83;1.53;;;5.60;99.90;;;;;;5044416;28;20591;-79
2021/04/02 04:33:46;;;;;;;0.80;0.80;;;5.70;99.90;;;;;;5047242;28;20186;-80
2021/04/02 04:36:13;;;;;;;1.53;1.20;;;5.80;99.90;;;;;;5046738;28;20197;-79
2021/04/02 04:38:41;;;;;;;1.20;1.00;;;5.80;99.90;;;;;;5047398;28;20268;-80
2021/04/02 04:41:08;;;;;;;1.20;0.90;;;5.90;99.90;;;;;;5047385;28;20183;-79
2021/04/02 04:43:35;;;;;;;1.40;1.10;;;6.00;99.90;;;;;;5048642;28;20267;-79
2021/04/02 04:46:01;;;;;;;0.90;0.77;;;6.00;99.90;;;;;;5047121;28;20240;-79
2021/04/02 04:48:27;;;;;;;1.30;1.20;;;6.00;99.90;;;;;;5048247;28;20264;-79
2021/04/02 04:50:52;;;;;;;1.50;1.17;;;5.90;99.90;;;;;;5046838;28;20183;-79
2021/04/02 04:53:27;;;;;;;1.03;0.93;;;5.90;99.90;;;;;;5048536;28;20185;-80
2021/04/02 04:55:57;;;;;;;0.93;0.83;;;5.90;99.90;;;;;;5046587;28;20667;-79
2021/04/02 04:58:27;;;;;;;1.03;0.90;;;5.90;99.90;;;;;;5046818;28;20194;-79
2021/04/02 05:00:56;;;;;;;1.10;0.97;;;5.90;99.90;;;;;;5046878;28;20195;-79
2021/04/02 05:03:23;;;;;;;1.20;1.10;;;6.00;99.90;;;;;;5046676;28;20202;-80
2021/04/02 05:05:53;;;;;;;1.57;1.37;;;6.10;99.90;;;;;;5046341;28;20270;-80
2021/04/02 05:08:22;;;;;;;1.23;1.13;;;6.00;99.90;;;;;;5047099;28;20617;-79
2021/04/02 05:10:51;;;;;;;1.17;1.03;;;5.90;99.90;;;;;;5046645;28;20182;-79
2021/04/02 05:13:20;;;;;;;0.67;0.67;;;5.80;99.90;;;;;;5048148;28;20193;-79
2021/04/02 05:15:46;;;;;;;1.50;0.90;;;5.70;99.90;;;;;;5044357;28;20186;-80
2021/04/02 05:18:13;;;;;;;4.07;1.00;;;5.70;99.90;;;;;;5046543;28;20210;-80
2021/04/02 05:20:42;;;;;;;1.00;0.90;;;5.80;99.90;;;;;;5047463;28;20206;-80
2021/04/02 05:23:09;;;;;;;0.70;0.70;;;5.70;99.90;;;;;;5047840;28;20583;-79
2021/04/02 05:25:34;;;;;;;1.47;1.20;;;5.70;99.90;;;;;;5045709;28;20182;-79
2021/04/02 05:28:00;;;;;;;1.20;1.10;;;5.70;99.90;;;;;;5046641;28;20272;-80
2021/04/02 05:30:27;;;;;;;1.67;1.17;;;5.70;99.90;;;;;;5043041;28;20217;-80
2021/04/02 05:32:53;;;;;;;1.70;1.20;;;5.70;99.90;;;;;;5045989;28;20191;-79
2021/04/02 05:35:18;;;;;;;2.47;1.60;;;5.80;99.90;;;;;;5045547;28;20239;-79
2021/04/02 05:37:44;;;;;;;2.27;1.63;;;5.90;99.90;;;;;;5045957;28;20209;-81
2021/04/02 05:40:10;;;;;;;1.50;1.20;;;6.00;99.90;;;;;;5046327;28;20195;-78
2021/04/02 05:42:40;;;;;;;1.67;1.20;;;6.20;99.90;;;;;;5046162;28;20731;-79
2021/04/02 05:45:07;;;;;;;1.20;1.00;;;6.40;99.90;;;;;;5044666;28;20297;-79
2021/04/02 05:47:34;;;;;;;1.87;1.50;;;6.50;99.90;;;;;;5046328;28;20274;-79
2021/04/02 05:50:01;;;;;;;1.50;1.20;;;6.60;99.90;;;;;;5047616;28;20202;-80
2021/04/02 05:52:29;;;;;;;1.47;1.23;;;6.70;99.90;;;;;;5046496;28;20177;-80
2021/04/02 05:54:57;;;;;;;1.43;1.20;;;6.70;99.90;;;;;;5045097;28;20235;-80
2021/04/02 05:57:24;;;;;;;1.77;1.30;;;6.90;99.90;;;;;;5045095;28;20285;-80
2021/04/02 05:59:52;;;;;;;1.60;1.20;;;7.00;99.90;;;;;;5046743;28;20678;-79
2021/04/02 06:02:18;;;;;;;1.63;1.17;;;7.00;99.90;;;;;;5045903;28;20175;-79
2021/04/02 06:04:45;;;;;;;1.47;1.30;;;7.00;99.90;;;;;;5045251;28;20549;-80
2021/04/02 06:07:11;;;;;;;2.10;1.93;;;7.00;99.90;;;;;;5043941;28;21183;-79
2021/04/02 06:09:36;;;;;;;1.83;1.47;;;7.10;99.90;;;;;;5045305;28;20170;-81
2021/04/02 06:12:03;;;;;;;1.83;1.53;;;7.10;99.90;;;;;;5045674;28;20189;-80
2021/04/02 06:14:29;;;;;;;1.77;1.37;;;7.20;99.90;;;;;;5046286;28;20183;-80
2021/04/02 06:16:55;;;;;;;1.30;1.13;;;7.20;99.90;;;;;;5045694;28;20328;-80
2021/04/02 06:19:21;;;;;;;1.27;1.13;;;7.10;99.90;;;;;;5041718;28;20206;-80
2021/04/02 06:21:52;;;;;;;2.10;1.53;;;7.20;99.90;;;;;;5046706;28;20307;-79
2021/04/02 06:24:45;;;;;;;2.10;1.40;;;7.10;99.90;;;;;;5044934;28;20271;-79
2021/04/02 06:27:11;;;;;;;1.70;1.17;;;7.00;99.90;;;;;;5045807;28;20217;-79
2021/04/02 06:29:39;;;;;;;1.77;1.37;;;7.10;99.90;;;;;;5045039;28;20671;-79
2021/04/02 06:32:12;;;;;;;2.73;1.97;;;6.90;99.90;;;;;;5037078;28;20209;-80
2021/04/02 06:34:45;;;;;;;2.73;1.73;;;6.90;99.90;;;;;;5043427;28;20292;-79
2021/04/02 06:37:10;;;;;;;2.40;1.80;;;6.80;99.90;;;;;;5043923;28;20219;-79
2021/04/02 06:39:36;;;;;;;3.37;1.80;;;6.70;99.90;;;;;;5045446;28;20178;-81
2021/04/02 06:42:06;;;;;;;1.70;1.30;;;6.60;99.90;;;;;;5045192;28;20193;-80
2021/04/02 06:44:32;;;;;;;2.97;1.73;;;6.70;99.90;;;;;;5045750;28;20198;-80
2021/04/02 06:46:58;;;;;;;2.33;1.63;;;6.80;99.90;;;;;;5044886;28;20209;-80
2021/04/02 06:49:25;;;;;;;2.37;1.83;;;6.90;99.90;;;;;;5045093;28;20566;-80
2021/04/02 06:51:53;;;;;;;1.80;1.30;;;7.00;99.90;;;;;;5045026;28;20174;-77
2021/04/02 06:54:22;;;;;;;2.60;2.10;;;7.20;99.90;;;;;;5045938;28;20186;-77
2021/04/02 06:56:50;;;;;;;1.63;1.53;;;7.20;99.90;;;;;;5042335;28;20209;-78
2021/04/02 06:59:19;;;;;;;1.70;1.20;;;7.40;99.90;;;;;;5044975;28;20578;-77
2021/04/02 07:01:49;;;;;;;1.50;1.20;;;7.50;99.90;;;;;;5046771;28;20564;-77
2021/04/02 07:04:16;;;;;;;1.17;0.97;;;7.40;99.90;;;;;;5045083;28;20332;-77
2021/04/02 07:06:42;;;;;;;1.60;1.10;;;7.40;99.90;;;;;;5043796;28;20197;-76
2021/04/02 07:09:13;;;;;;;1.07;0.97;;;7.50;99.90;;;;;;5060972;28;20178;-76
2021/04/02 07:11:40;;;;;;;1.00;0.80;;;7.50;99.90;;;;;;5045714;28;20170;-76
2021/04/02 07:14:09;;;;;;;0.73;0.73;;;7.60;99.90;;;;;;5043460;28;20190;-76
2021/04/02 07:16:37;;;;;;;1.03;0.90;;;7.60;99.90;;;;;;5044319;28;20205;-76
2021/04/02 07:19:03;;;;;;;1.27;1.00;;;7.70;99.90;;;;;;5045754;28;20190;-78
2021/04/02 07:21:33;;;;;;;0.87;0.63;;;7.80;99.90;;;;;;5044919;28;21147;-76
2021/04/02 07:24:00;;;;;;;1.00;0.87;;;7.80;99.90;;;;;;5045521;28;20270;-76
2021/04/02 07:26:27;;;;;;;1.33;0.80;;;7.70;99.90;;;;;;5045305;28;20174;-77
2021/04/02 07:28:54;;;;;;;1.10;1.00;;;7.80;99.90;;;;;;5045907;28;20842;-77
2021/04/02 07:31:21;;;;;;;0.93;0.93;;;7.90;99.90;;;;;;5043579;28;20224;-78
2021/04/02 07:33:48;;;;;;;0.60;0.60;;;8.10;99.90;;;;;;5044200;28;20567;-77
2021/04/02 07:36:17;;;;;;;0.80;0.77;;;8.20;99.90;;;;;;5044991;28;20672;-78
2021/04/02 07:38:48;;;;;;;0.77;0.73;;;8.30;99.90;;;;;;5045684;28;20178;-77
2021/04/02 07:41:16;;;;;;;0.67;0.50;;;8.40;99.90;;;;;;5044478;28;20177;-78
2021/04/02 07:43:57;;;;;;;0.73;0.63;;;8.60;99.90;;;;;;5043375;28;20194;-81
2021/04/02 07:46:27;;;;;;;1.07;0.93;;;8.60;99.90;;;;;;5039418;28;20654;-78
2021/04/02 07:49:11;;;;;;;0.50;0.50;;;8.70;99.90;;;;;;5042071;28;20224;-78
2021/04/02 07:51:46;;;;;;;0.53;0.53;;;8.60;99.90;;;;;;5044669;28;20218;-78
2021/04/02 07:54:13;;;;;;;1.27;0.67;;;8.50;99.90;;;;;;5042419;28;20574;-78
2021/04/02 07:56:39;;;;;;;0.83;0.77;;;8.60;99.90;;;;;;5042549;28;20301;-78
2021/04/02 07:59:05;;;;;;;0.73;0.60;;;8.50;99.90;;;;;;5042755;28;20961;-79
2021/04/02 08:01:32;;;;;;;0.90;0.90;;;8.30;99.90;;;;;;5041776;28;20224;-78
2021/04/02 08:04:02;;;;;;;1.47;1.37;;;8.50;99.90;;;;;;5042260;28;20225;-78
2021/04/02 08:06:35;;;;;;;1.20;1.10;;;8.40;99.90;;;;;;5041614;28;20240;-79
2021/04/02 08:09:02;;;;;;;0.70;0.57;;;8.50;99.90;;;;;;5042708;28;20186;-79
2021/04/02 08:11:33;;;;;;;0.90;0.73;;;8.20;99.90;;;;;;5042727;28;20178;-79
2021/04/02 08:14:13;;;;;;;1.80;1.00;;;8.00;99.90;;;;;;5041906;28;20216;-78
2021/04/02 08:16:39;;;;;;;0.90;0.73;;;7.60;99.90;;;;;;5042865;28;20198;-80
2021/04/02 08:19:27;;;;;;;1.50;0.80;;;7.30;99.90;;;;;;5037569;28;20615;-81
2021/04/02 08:22:00;;;;;;;0.80;0.80;;;7.20;99.90;;;;;;5037564;28;20448;-81
2021/04/02 08:24:34;;;;;;;1.10;0.97;;;7.20;99.90;;;;;;5027284;28;20206;-81
2021/04/02 08:27:01;;;;;;;0.77;0.77;;;7.20;99.90;;;;;;5042433;28;20228;-81
2021/04/02 08:29:29;;;;;;;0.57;0.57;;;7.20;99.90;;;;;;5041917;28;20549;-82
2021/04/02 08:31:57;;;;;;;1.53;0.83;;;7.30;99.90;;;;;;5040449;28;20735;-80
2021/04/02 08:34:26;;;;;;;0.53;0.53;;;7.50;99.90;;;;;;5041355;28;20606;-81
2021/04/02 08:36:54;;;;;;;0.53;0.50;;;7.50;99.90;;;;;;5042101;28;20289;-80
2021/04/02 08:39:23;;;;;;;0.80;0.80;;;7.50;99.90;;;;;;5041125;28;20182;-80
2021/04/02 08:41:59;;;;;;;0.50;0.50;;;7.60;99.90;;;;;;5042989;28;20221;-82
2021/04/02 08:44:35;;;;;;;0.90;0.70;;;7.90;99.90;;;;;;5040650;28;20236;-81
2021/04/02 08:47:03;;;;;;;0.63;0.53;;;8.00;99.90;;;;;;5041343;28;20218;-81
2021/04/02 08:49:40;;;;;;;0.50;0.50;;;8.10;99.90;;;;;;5041405;28;20636;-81
2021/04/02 08:52:12;;;;;;;0.60;0.60;;;8.10;99.90;;;;;;5043020;28;20739;-81
2021/04/02 08:54:38;;;;;;;0.53;0.50;;;8.30;99.90;;;;;;5041434;28;20273;-81
2021/04/02 08:57:05;;;;;;;0.60;0.60;;;8.60;99.90;;;;;;5037751;28;20644;-81
2021/04/02 08:59:33;;;;;;;0.57;0.57;;;8.70;99.90;;;;;;5040975;28;20213;-81
2021/04/02 09:01:59;;;;;;;0.60;0.60;;;8.60;99.90;;;;;;5041074;28;20715;-81
2021/04/02 09:04:27;;;;;;;0.40;0.40;;;8.60;99.90;;;;;;5034504;28;20296;-81
2021/04/02 09:06:53;;;;;;;0.70;0.70;;;8.60;99.90;;;;;;5038205;28;20245;-81
2021/04/02 09:09:22;;;;;;;0.50;0.50;;;8.70;99.90;;;;;;5040440;28;20198;-81
2021/04/02 09:11:54;;;;;;;0.67;0.57;;;8.80;99.90;;;;;;5040489;28;20640;-81
2021/04/02 09:14:20;;;;;;;0.63;0.60;;;8.80;99.90;;;;;;5040918;28;20651;-81
2021/04/02 09:16:48;;;;;;;0.23;0.23;;;9.20;99.90;;;;;;5045537;28;20628;-81
2021/04/02 09:19:16;;;;;;;0.33;0.33;;;9.60;99.90;;;;;;5043681;28;20202;-81
2021/04/02 09:21:42;;;;;;;0.70;0.40;;;9.60;99.90;;;;;;5047487;28;20664;-82
2021/04/02 09:24:08;;;;;;;0.40;0.40;;;9.40;99.90;;;;;;5044843;28;20210;-81
2021/04/02 09:26:42;;;;;;;0.47;0.30;;;9.50;99.90;;;;;;5046473;28;20208;-81
2021/04/02 09:29:12;;;;;;;0.60;0.60;;;9.60;99.90;;;;;;5044834;28;20185;-80
2021/04/02 09:31:41;;;;;;;0.77;0.60;;;9.60;99.90;;;;;;5046837;28;20178;-81
2021/04/02 09:34:16;;;;;;;0.97;0.80;;;9.60;99.90;;;;;;5044487;28;20187;-81
2021/04/02 09:36:42;;;;;;;2.47;0.80;;;9.70;99.90;;;;;;5045139;28;20578;-81
2021/04/02 09:39:15;;;;;;;1.37;1.20;;;10.00;99.90;;;;;;5046466;28;20183;-81
2021/04/02 09:41:53;;;;;;;1.20;1.00;;;10.20;99.90;;;;;;5045319;28;20182;-81
2021/04/02 09:44:21;;;;;;;1.00;1.00;;;9.80;99.90;;;;;;5045341;28;20688;-82
2021/04/02 09:46:48;;;;;;;1.30;1.20;;;10.00;99.90;;;;;;5052895;28;20206;-81
2021/04/02 09:49:19;;;;;;;2.20;1.30;;;10.30;99.90;;;;;;5044296;28;20273;-81
2021/04/02 09:51:46;;;;;;;1.30;1.10;;;10.20;99.90;;;;;;5045124;28;20669;-80
2021/04/02 09:54:14;;;;;;;1.60;1.30;;;10.40;99.90;;;;;;5044997;28;20185;-80
2021/04/02 09:56:41;;;;;;;1.83;1.40;;;10.90;99.90;;;;;;5044960;28;20206;-79
2021/04/02 09:59:07;;;;;;;1.73;1.17;;;11.30;99.90;;;;;;5044655;28;20221;-80
2021/04/02 10:01:35;;;;;;;1.10;0.90;;;11.20;99.90;;;;;;5044779;28;20269;-80
2021/04/02 10:04:01;;;;;;;1.33;1.17;;;11.40;99.90;;;;;;5043270;28;20301;-81
2021/04/02 10:06:27;;;;;;;1.50;1.40;;;11.30;99.90;;;;;;5044895;28;20174;-80
2021/04/02 10:08:54;;;;;;;12.37;6.87;;;11.10;99.90;;;;;;5044583;28;20186;-83
2021/04/02 10:11:20;;;;;;;2.07;1.87;;;11.30;99.90;;;;;;5044375;28;20182;-81
2021/04/02 10:13:46;;;;;;;1.83;1.30;;;11.30;99.90;;;;;;5045617;28;20194;-81
2021/04/02 10:16:11;;;;;;;1.50;1.40;;;11.00;99.90;;;;;;5045167;28;20192;-82
2021/04/02 10:18:38;;;;;;;2.27;1.50;;;10.90;99.90;;;;;;5044074;28;20675;-81
2021/04/02 10:21:05;;;;;;;3.63;1.87;;;11.20;99.90;;;;;;5045344;28;20182;-82
2021/04/02 10:23:32;;;;;;;5.13;1.90;;;11.60;99.90;;;;;;5042528;28;20574;-80
2021/04/02 10:25:58;;;;;;;1.97;1.67;;;11.70;99.90;;;;;;5044361;28;20182;-81
2021/04/02 10:28:24;;;;;;;2.40;1.70;;;11.10;99.90;;;;;;5043888;28;20197;-83
2021/04/02 10:30:51;;;;;;;2.47;1.73;;;10.80;99.90;;;;;;5043890;28;20256;-82
2021/04/02 10:33:17;;;;;;;2.17;1.97;;;10.90;99.90;;;;;;5043587;28;20212;-82
2021/04/02 10:35:43;;;;;;;2.33;1.70;;;11.20;99.90;;;;;;5044323;28;20669;-82
2021/04/02 10:38:09;;;;;;;4.40;2.40;;;11.30;99.90;;;;;;5044366;28;20201;-83
2021/04/02 10:40:34;;;;;;;3.87;2.43;;;11.70;99.90;;;;;;5043725;28;20710;-81
2021/04/02 10:43:00;;;;;;;4.57;2.70;;;12.30;99.90;;;;;;5044967;28;20467;-83
2021/04/02 10:45:26;;;;;;;3.17;1.90;;;12.60;99.90;;;;;;5043034;28;20810;-82
2021/04/02 10:47:52;;;;;;;3.83;2.40;;;12.50;99.90;;;;;;5045073;28;20303;-82
2021/04/02 10:50:18;;;;;;;2.90;2.33;;;12.20;99.90;;;;;;5045375;28;20273;-83
2021/04/02 10:52:44;;;;;;;3.33;2.17;;;12.00;99.90;;;;;;5043099;28;20656;-82
2021/04/02 10:55:10;;;;;;;2.87;2.07;;;11.80;99.90;;;;;;5043021;28;20197;-81
2021/04/02 10:57:36;;;;;;;3.20;2.47;;;11.90;99.90;;;;;;5044397;28;20675;-81
2021/04/02 11:00:04;;;;;;;2.47;2.13;;;12.10;99.90;;;;;;5042911;28;20218;-81
2021/04/02 11:02:29;;;;;;;3.53;2.23;;;12.40;99.90;;;;;;5042801;28;20182;-82
2021/04/02 11:04:57;;;;;;;2.30;1.87;;;12.30;99.90;;;;;;5043788;28;20217;-81
2021/04/02 11:07:22;;;;;;;1.60;1.50;;;11.90;99.90;;;;;;5042641;28;20696;-81
2021/04/02 11:09:48;;;;;;;2.20;1.87;;;11.50;99.90;;;;;;5044124;28;20481;-81
2021/04/02 11:12:14;;;;;;;1.73;1.57;;;11.60;99.90;;;;;;5044189;28;20227;-81
2021/04/02 11:14:39;;;;;;;1.70;1.53;;;11.60;99.90;;;;;;5043597;28;20183;-82
2021/04/02 11:17:05;;;;;;;1.70;1.53;;;11.60;99.90;;;;;;5044183;28;20210;-81
2021/04/02 11:19:30;;;;;;;1.60;1.50;;;11.60;99.90;;;;;;5042834;28;20189;-81
2021/04/02 11:21:56;;;;;;;2.13;1.50;;;11.60;99.90;;;;;;5042466;28;20186;-82
2021/04/02 11:24:22;;;;;;;2.03;1.63;;;11.50;99.90;;;;;;5042152;28;20206;-82
2021/04/02 11:26:47;;;;;;;2.10;1.50;;;11.60;99.90;;;;;;5044294;28;20557;-82
2021/04/02 11:29:13;;;;;;;1.77;1.57;;;11.20;99.90;;;;;;5043756;28;20174;-81
2021/04/02 11:31:39;;;;;;;2.63;1.87;;;11.30;99.90;;;;;;5043005;28;20186;-81
2021/04/02 11:34:04;;;;;;;1.97;1.70;;;11.20;99.90;;;;;;5042018;28;21156;-82
2021/04/02 11:36:30;;;;;;;1.70;1.47;;;11.20;99.90;;;;;;5042226;28;20182;-81
2021/04/02 11:38:55;;;;;;;1.93;1.37;;;11.20;99.90;;;;;;5043789;28;20673;-82
2021/04/02 11:41:21;;;;;;;2.03;1.73;;;11.60;99.90;;;;;;5042232;28;20231;-81
2021/04/02 11:43:47;;;;;;;3.37;2.43;;;11.60;99.90;;;;;;5041327;28;20214;-81
2021/04/02 11:46:12;;;;;;;2.40;1.80;;;11.10;99.90;;;;;;5043800;28;20173;-81
2021/04/02 11:48:38;;;;;;;1.87;1.73;;;10.80;99.90;;;;;;5044095;28;20218;-81
2021/04/02 11:51:04;;;;;;;2.97;1.63;;;10.90;99.90;;;;;;5045569;28;20213;-80
2021/04/02 11:53:29;;;;;;;2.97;1.90;;;10.90;99.90;;;;;;5042986;28;20260;-80
2021/04/02 11:55:55;;;;;;;1.90;1.70;;;11.10;99.90;;;;;;5043685;28;20186;-80
2021/04/02 11:58:21;;;;;;;2.40;1.70;;;11.10;99.90;;;;;;5043176;28;20206;-80
2021/04/02 12:00:46;;;;;;;2.87;1.87;;;11.40;99.90;;;;;;5043802;28;20182;-80
2021/04/02 12:03:12;;;;;;;2.23;1.70;;;11.10;99.90;;;;;;5041921;28;20273;-81
2021/04/02 12:05:38;;;;;;;2.17;1.53;;;10.60;99.90;;;;;;5043219;28;20269;-81
2021/04/02 12:08:04;;;;;;;2.20;1.93;;;10.50;99.90;;;;;;5043254;28;20205;-81
2021/04/02 12:10:29;;;;;;;2.70;2.20;;;10.50;99.90;;;;;;5044917;28;21223;-81
2021/04/02 12:12:55;;;;;;;2.30;2.00;;;10.40;99.90;;;;;;5043300;28;20178;-81
2021/04/02 12:15:21;;;;;;;3.30;1.80;;;10.20;99.90;;;;;;5043725;28;20201;-82
2021/04/02 12:17:46;;;;;;;2.00;1.50;;;10.00;99.90;;;;;;5043648;28;20207;-82
2021/04/02 12:20:16;;;;;;;1.90;1.70;;;9.80;99.90;;;;;;5044242;28;20178;-81
2021/04/02 12:22:42;;;;;;;2.60;1.80;;;9.80;99.90;;;;;;5044356;28;20213;-80
2021/04/02 12:25:12;;;;;;;4.20;2.57;;;10.00;99.90;;;;;;5045585;28;20221;-81
2021/04/02 12:27:38;;;;;;;5.27;2.60;;;10.20;99.90;;;;;;5044115;28;20194;-81
2021/04/02 12:30:07;;;;;;;3.00;2.17;;;10.30;99.90;;;;;;5044123;28;20193;-81
2021/04/02 12:32:33;;;;;;;3.90;2.90;;;10.20;99.90;;;;;;5043712;28;20171;-81
2021/04/02 12:35:00;;;;;;;3.90;2.20;;;10.20;99.90;;;;;;5043663;28;20245;-81
2021/04/02 12:37:26;;;;;;;3.70;2.30;;;10.20;99.90;;;;;;5045647;28;20280;-80
2021/04/02 12:39:51;;;;;;;4.00;2.80;;;10.30;99.90;;;;;;5043924;28;21346;-81
2021/04/02 12:42:17;;;;;;;5.73;4.03;;;10.20;99.90;;;;;;5045231;28;20201;-79
2021/04/02 12:44:42;;;;;;;4.30;3.20;;;10.20;99.90;;;;;;5041984;28;20213;-81
2021/04/02 12:47:08;;;;;;;2.27;1.87;;;10.10;99.90;;;;;;5045811;28;20217;-82
2021/04/02 12:49:34;;;;;;;3.40;2.90;;;9.90;99.90;;;;;;5043969;28;20181;-81
2021/04/02 12:52:00;;;;;;;3.40;2.67;;;10.10;99.90;;;;;;5044638;28;20312;-81
2021/04/02 12:54:26;;;;;;;2.93;2.33;;;10.40;99.90;;;;;;5046152;28;20642;-81
2021/04/02 12:56:51;;;;;;;3.90;2.43;;;10.20;99.90;;;;;;5047891;28;20379;-81
2021/04/02 12:59:17;;;;;;;3.90;2.97;;;10.20;99.90;;;;;;5047666;28;20272;-81
2021/04/02 13:01:42;;;;;;;2.70;2.43;;;10.30;99.90;;;;;;5045213;28;20182;-81